createdAt,value
2019-05-14T00:05:21.552Z,6.61
2019-05-14T00:11:26.315Z,6.34
2019-05-14T00:17:31.916Z,6.54
2019-05-14T00:23:36.612Z,6.50
2019-05-14T00:29:41.825Z,6.66
2019-05-14T00:35:46.578Z,6.54
2019-05-14T00:41:51.434Z,6.81
2019-05-14T00:47:56.092Z,6.54
2019-05-14T00:54:01.670Z,6.54
2019-05-14T01:00:07.164Z,6.33
2019-05-14T01:06:11.702Z,6.15
2019-05-14T01:12:16.232Z,5.92
2019-05-14T01:18:21.932Z,5.82
2019-05-14T01:24:26.725Z,5.85
2019-05-14T01:30:31.991Z,5.55
2019-05-14T01:36:36.841Z,5.50
2019-05-14T01:42:41.805Z,5.50
2019-05-14T01:48:46.528Z,5.29
2019-05-14T01:54:51.619Z,5.27
2019-05-14T02:00:56.416Z,5.27
2019-05-14T02:07:02.194Z,5.29
2019-05-14T02:13:07.847Z,5.22
2019-05-14T02:19:12.805Z,5.31
2019-05-14T02:25:17.668Z,5.21
2019-05-14T02:31:22.478Z,5.03
2019-05-14T02:37:29.894Z,4.80
2019-05-14T02:43:33.762Z,4.85
2019-05-14T02:49:39.849Z,4.90
2019-05-14T02:55:44.826Z,4.82
2019-05-14T03:01:50.377Z,4.48
2019-05-14T03:07:55.355Z,4.45
2019-05-14T03:14:00.435Z,4.37
2019-05-14T03:20:09.179Z,4.33
2019-05-14T03:26:14.112Z,4.36
2019-05-14T03:32:22.939Z,4.53
2019-05-14T03:38:29.612Z,4.49
2019-05-14T03:44:35.632Z,4.57
2019-05-14T03:50:41.359Z,4.49
2019-05-14T03:56:49.354Z,4.61
2019-05-14T04:02:53.194Z,4.43
2019-05-14T04:09:00.844Z,4.53
2019-05-14T04:15:09.802Z,4.32
2019-05-14T04:21:20.266Z,4.29
2019-05-14T04:27:25.357Z,4.71
2019-05-14T04:33:30.668Z,4.84
2019-05-14T04:39:39.556Z,5.20
2019-05-14T04:45:43.983Z,5.44
2019-05-14T04:51:50.318Z,5.46
2019-05-14T04:57:55.444Z,5.62
2019-05-14T05:04:00.281Z,5.87
2019-05-14T05:10:10.177Z,6.00
2019-05-14T05:16:18.921Z,6.21
2019-05-14T05:22:22.543Z,6.51
2019-05-14T05:28:28.305Z,6.72
2019-05-14T05:34:33.124Z,7.11
2019-05-14T05:40:39.139Z,7.34
2019-05-14T05:46:43.880Z,7.56
2019-05-14T05:52:49.871Z,7.81
2019-05-14T05:58:54.836Z,8.08
2019-05-14T06:04:59.458Z,8.32
2019-05-14T06:11:04.096Z,8.66
2019-05-14T06:17:08.798Z,8.82
2019-05-14T06:23:13.350Z,9.02
2019-05-14T06:29:18.666Z,9.17
2019-05-14T06:35:23.329Z,9.52
2019-05-14T06:41:28.493Z,9.52
2019-05-14T06:47:33.161Z,9.86
2019-05-14T06:53:39.247Z,10.09
2019-05-14T06:59:44.047Z,10.48
2019-05-14T07:05:51.572Z,10.57
2019-05-14T07:11:58.418Z,10.92
2019-05-14T07:18:02.499Z,11.43
2019-05-14T07:24:08.728Z,11.50
2019-05-14T07:30:14.022Z,12.22
2019-05-14T07:36:19.055Z,12.60
2019-05-14T07:42:23.837Z,12.73
2019-05-14T07:48:28.912Z,12.77
2019-05-14T07:54:33.519Z,13.18
2019-05-14T08:00:40.204Z,13.34
2019-05-14T08:06:44.605Z,13.39
2019-05-14T08:12:49.157Z,13.69
2019-05-14T08:18:53.786Z,13.98
2019-05-14T08:24:58.341Z,14.04
2019-05-14T08:31:02.961Z,14.18
2019-05-14T08:37:08.226Z,14.28
2019-05-14T08:43:13.036Z,14.12
2019-05-14T08:49:20.591Z,14.93
2019-05-14T08:55:25.573Z,15.34
2019-05-14T09:01:30.323Z,15.35
2019-05-14T09:07:40.091Z,16.04
2019-05-14T09:13:49.033Z,16.39
2019-05-14T09:20:02.398Z,16.64
2019-05-14T09:26:01.356Z,16.89
2019-05-14T09:32:06.255Z,16.52
2019-05-14T09:38:10.943Z,16.66
2019-05-14T09:44:15.667Z,17.85
2019-05-14T09:50:23.320Z,17.19
2019-05-14T09:56:30.823Z,17.18
2019-05-14T10:02:38.979Z,16.60
2019-05-14T10:08:42.744Z,16.52
2019-05-14T10:14:50.123Z,16.93
2019-05-14T10:20:55.755Z,16.87
2019-05-14T10:27:01.869Z,16.87
2019-05-14T10:33:14.120Z,17.39
2019-05-14T10:39:13.670Z,18.08
2019-05-14T10:45:18.814Z,18.38
2019-05-14T10:51:23.670Z,17.86
2019-05-14T10:57:29.029Z,17.60
2019-05-14T11:03:33.698Z,18.58
2019-05-14T11:09:38.296Z,18.75
2019-05-14T11:15:51.337Z,19.15
2019-05-14T11:21:57.941Z,19.92
2019-05-14T11:28:02.230Z,20.39
2019-05-14T11:34:08.313Z,19.21
2019-05-14T11:40:13.442Z,17.11
2019-05-14T11:46:33.279Z,15.83
2019-05-14T11:52:28.674Z,18.50
2019-05-14T11:58:33.543Z,20.57
2019-05-14T12:04:39.153Z,22.02
2019-05-14T12:10:44.021Z,20.47
2019-05-14T12:16:53.453Z,18.96
2019-05-14T12:23:00.890Z,20.68
2019-05-14T12:29:05.575Z,18.67
2019-05-14T12:35:10.211Z,19.92
2019-05-14T12:41:14.770Z,21.85
2019-05-14T12:47:19.362Z,22.95
2019-05-14T12:53:23.920Z,20.55
2019-05-14T12:59:28.728Z,18.79
2019-05-14T13:05:33.348Z,20.35
2019-05-14T13:11:41.315Z,20.43
2019-05-14T13:17:48.385Z,19.18
2019-05-14T13:23:53.245Z,21.63
2019-05-14T13:29:59.198Z,19.93
2019-05-14T13:36:04.109Z,19.10
2019-05-14T13:42:11.851Z,18.47
2019-05-14T13:48:15.130Z,17.70
2019-05-14T13:54:19.717Z,17.17
2019-05-14T14:00:24.703Z,16.40
2019-05-14T14:06:29.593Z,16.11
2019-05-14T14:12:34.232Z,21.75
2019-05-14T14:18:39.498Z,22.66
2019-05-14T14:24:44.329Z,22.69
2019-05-14T14:30:49.266Z,21.87
2019-05-14T14:36:55.203Z,20.50
2019-05-14T14:43:00.165Z,18.92
2019-05-14T14:49:04.763Z,17.92
2019-05-14T14:55:09.648Z,19.07
2019-05-14T15:01:14.305Z,23.01
2019-05-14T15:07:18.872Z,25.21
2019-05-14T15:13:24.656Z,27.61
2019-05-14T15:19:29.887Z,25.90
2019-05-14T15:25:34.585Z,23.68
2019-05-14T15:31:39.206Z,26.09
2019-05-14T15:37:43.840Z,26.50
2019-05-14T15:43:48.416Z,27.56
2019-05-14T15:49:53.054Z,21.95
2019-05-14T15:55:57.605Z,19.81
2019-05-14T16:02:02.247Z,18.53
2019-05-14T16:08:06.839Z,17.77
2019-05-14T16:14:11.377Z,17.08
2019-05-14T16:20:18.716Z,16.73
2019-05-14T16:26:22.496Z,18.64
2019-05-14T16:32:28.472Z,18.90
2019-05-14T16:38:33.289Z,17.26
2019-05-14T16:44:39.150Z,16.36
2019-05-14T16:50:43.909Z,17.15
2019-05-14T16:56:48.563Z,21.31
2019-05-14T17:02:53.171Z,23.94
2019-05-14T17:08:59.469Z,23.42
2019-05-14T17:15:04.780Z,20.47
2019-05-14T17:21:09.439Z,23.83
2019-05-14T17:27:14.118Z,22.84
2019-05-14T17:33:18.704Z,20.34
2019-05-14T17:39:23.255Z,18.74
2019-05-14T17:45:28.542Z,18.99
2019-05-14T17:51:33.214Z,18.19
2019-05-14T17:57:44.946Z,17.49
2019-05-14T18:03:44.094Z,18.79
2019-05-14T18:09:48.719Z,19.52
2019-05-14T18:15:53.342Z,20.42
2019-05-14T18:21:59.274Z,20.19
2019-05-14T18:28:04.145Z,20.08
2019-05-14T18:34:08.779Z,18.23
2019-05-14T18:40:13.454Z,17.57
2019-05-14T18:46:19.248Z,15.96
2019-05-14T18:52:23.993Z,14.60
2019-05-14T18:58:29.337Z,13.90
2019-05-14T19:04:34.265Z,13.09
2019-05-14T19:10:39.173Z,12.31
2019-05-14T19:16:43.867Z,11.99
2019-05-14T19:22:49.166Z,11.54
2019-05-14T19:28:53.974Z,10.90
2019-05-14T19:34:58.520Z,10.14
2019-05-14T19:41:03.278Z,9.86
2019-05-14T19:47:07.838Z,9.27
2019-05-14T19:53:12.509Z,9.03
2019-05-14T19:59:18.333Z,8.69
2019-05-14T20:05:23.050Z,8.45
2019-05-14T20:11:28.917Z,8.43
2019-05-14T20:17:33.789Z,8.19
2019-05-14T20:23:38.833Z,7.99
2019-05-14T20:29:43.489Z,7.64
2019-05-14T20:35:48.748Z,7.44
2019-05-14T20:41:53.530Z,7.49
2019-05-14T20:47:58.691Z,7.33
2019-05-14T20:54:03.371Z,7.14
2019-05-14T21:00:11.345Z,7.18
2019-05-14T21:06:15.465Z,7.06
2019-05-14T21:12:20.038Z,7.06
2019-05-14T21:18:34.730Z,6.88
2019-05-14T21:24:30.993Z,6.75
2019-05-14T21:30:35.572Z,6.58
2019-05-14T21:36:41.776Z,6.52
2019-05-14T21:42:48.610Z,6.46
2019-05-14T21:48:52.668Z,6.38
2019-05-14T21:54:58.657Z,6.27
2019-05-14T22:01:04.214Z,6.30
2019-05-14T22:07:09.134Z,6.24
2019-05-14T22:13:13.958Z,6.09
2019-05-14T22:19:19.077Z,6.12
2019-05-14T22:25:23.810Z,6.14
2019-05-14T22:31:29.070Z,6.13
2019-05-14T22:37:33.811Z,5.88
2019-05-14T22:43:38.506Z,6.07
2019-05-14T22:49:43.130Z,5.89
2019-05-14T22:55:49.096Z,5.60
2019-05-14T23:01:54.932Z,5.50
2019-05-14T23:07:59.517Z,5.55
2019-05-14T23:14:04.140Z,5.33
2019-05-14T23:20:10.031Z,5.19
2019-05-14T23:26:14.608Z,5.00
2019-05-14T23:32:19.309Z,4.85
2019-05-14T23:38:24.549Z,4.95
2019-05-14T23:44:29.419Z,4.75
2019-05-14T23:50:34.049Z,4.80
2019-05-14T23:56:38.736Z,4.52
